sensor_id;sensor_type;location;lat;lon;timestamp;pressure;altitude;pressure_sealevel;temperature;humidity
19208;BME280;9737;59.466;18.036;2024-02-28T00:00:46;100709.59;;;1.57;86.89
19208;BME280;9737;59.466;18.036;2024-02-28T00:03:14;100689.63;;;1.52;87.01
19208;BME280;9737;59.466;18.036;2024-02-28T00:05:42;100697.41;;;1.55;86.63
19208;BME280;9737;59.466;18.036;2024-02-28T00:08:11;100684.50;;;1.49;86.59
19208;BME280;9737;59.466;18.036;2024-02-28T00:10:39;100676.72;;;1.46;86.63
19208;BME280;9737;59.466;18.036;2024-02-28T00:13:07;100683.59;;;1.50;86.60
19208;BME280;9737;59.466;18.036;2024-02-28T00:15:36;100670.59;;;1.47;86.47
19208;BME280;9737;59.466;18.036;2024-02-28T00:18:05;100689.69;;;1.51;86.65
19208;BME280;9737;59.466;18.036;2024-02-28T00:20:34;100685.41;;;1.48;86.75
19208;BME280;9737;59.466;18.036;2024-02-28T00:23:02;100687.88;;;1.53;86.54
19208;BME280;9737;59.466;18.036;2024-02-28T00:25:30;100701.88;;;1.52;86.63
19208;BME280;9737;59.466;18.036;2024-02-28T00:27:57;100707.88;;;1.55;86.62
19208;BME280;9737;59.466;18.036;2024-02-28T00:30:25;100698.31;;;1.54;86.79
19208;BME280;9737;59.466;18.036;2024-02-28T00:32:56;100693.06;;;1.54;86.81
19208;BME280;9737;59.466;18.036;2024-02-28T00:35:24;100690.59;;;1.50;86.55
19208;BME280;9737;59.466;18.036;2024-02-28T00:37:52;100670.53;;;1.49;86.58
19208;BME280;9737;59.466;18.036;2024-02-28T00:40:20;100664.53;;;1.45;86.94
19208;BME280;9737;59.466;18.036;2024-02-28T00:42:48;100629.94;;;1.34;86.54
19208;BME280;9737;59.466;18.036;2024-02-28T00:45:16;100623.78;;;1.35;86.51
19208;BME280;9737;59.466;18.036;2024-02-28T00:47:53;100652.31;;;1.44;86.54
19208;BME280;9737;59.466;18.036;2024-02-28T00:50:24;100626.63;;;1.29;86.44
19208;BME280;9737;59.466;18.036;2024-02-28T00:52:52;100660.16;;;1.44;86.43
19208;BME280;9737;59.466;18.036;2024-02-28T00:55:25;100628.13;;;1.36;86.66
19208;BME280;9737;59.466;18.036;2024-02-28T00:57:53;100648.88;;;1.42;86.76
19208;BME280;9737;59.466;18.036;2024-02-28T01:00:21;100649.75;;;1.43;86.32
19208;BME280;9737;59.466;18.036;2024-02-28T01:02:50;100677.53;;;1.48;86.75
19208;BME280;9737;59.466;18.036;2024-02-28T01:05:18;100702.66;;;1.55;86.28
19208;BME280;9737;59.466;18.036;2024-02-28T01:07:47;100683.50;;;1.53;86.53
19208;BME280;9737;59.466;18.036;2024-02-28T01:10:15;100681.03;;;1.49;86.59
19208;BME280;9737;59.466;18.036;2024-02-28T01:12:43;100676.59;;;1.51;86.62
19208;BME280;9737;59.466;18.036;2024-02-28T01:15:11;100676.72;;;1.46;86.44
19208;BME280;9737;59.466;18.036;2024-02-28T01:17:40;100662.78;;;1.46;86.46
19208;BME280;9737;59.466;18.036;2024-02-28T01:20:09;100661.00;;;1.46;86.51
19208;BME280;9737;59.466;18.036;2024-02-28T01:22:37;100673.16;;;1.49;86.80
19208;BME280;9737;59.466;18.036;2024-02-28T01:25:07;100652.34;;;1.43;86.42
19208;BME280;9737;59.466;18.036;2024-02-28T01:27:35;100664.44;;;1.48;86.39
19208;BME280;9737;59.466;18.036;2024-02-28T01:30:04;100677.53;;;1.48;86.49
19208;BME280;9737;59.466;18.036;2024-02-28T01:32:32;100667.91;;;1.49;86.51
19208;BME280;9737;59.466;18.036;2024-02-28T01:35:01;100674.91;;;1.48;86.40
19208;BME280;9737;59.466;18.036;2024-02-28T01:37:29;100645.34;;;1.43;86.40
19208;BME280;9737;59.466;18.036;2024-02-28T01:39:57;100641.94;;;1.41;86.44
19208;BME280;9737;59.466;18.036;2024-02-28T01:42:26;100649.66;;;1.46;86.67
19208;BME280;9737;59.466;18.036;2024-02-28T01:44:56;100652.41;;;1.41;86.56
19208;BME280;9737;59.466;18.036;2024-02-28T01:47:24;100669.69;;;1.48;86.37
19208;BME280;9737;59.466;18.036;2024-02-28T01:49:53;100655.94;;;1.40;86.57
19208;BME280;9737;59.466;18.036;2024-02-28T01:52:21;100668.81;;;1.48;86.45
19208;BME280;9737;59.466;18.036;2024-02-28T01:54:50;100674.91;;;1.48;86.49
19208;BME280;9737;59.466;18.036;2024-02-28T01:57:19;100664.53;;;1.45;86.38
19208;BME280;9737;59.466;18.036;2024-02-28T01:59:48;100653.19;;;1.45;86.22
19208;BME280;9737;59.466;18.036;2024-02-28T02:02:16;100648.03;;;1.42;86.36
19208;BME280;9737;59.466;18.036;2024-02-28T02:04:44;100643.63;;;1.42;86.35
19208;BME280;9737;59.466;18.036;2024-02-28T02:07:12;100644.44;;;1.44;86.63
19208;BME280;9737;59.466;18.036;2024-02-28T02:09:40;100644.50;;;1.43;86.26
19208;BME280;9737;59.466;18.036;2024-02-28T02:12:08;100649.75;;;1.43;86.38
19208;BME280;9737;59.466;18.036;2024-02-28T02:14:36;100655.81;;;1.45;86.48
19208;BME280;9737;59.466;18.036;2024-02-28T02:17:06;100677.53;;;1.48;86.19
19208;BME280;9737;59.466;18.036;2024-02-28T02:19:33;100646.22;;;1.44;86.37
19208;BME280;9737;59.466;18.036;2024-02-28T02:22:05;100651.56;;;1.41;86.47
19208;BME280;9737;59.466;18.036;2024-02-28T02:24:34;100674.81;;;1.51;86.32
19208;BME280;9737;59.466;18.036;2024-02-28T02:27:02;100680.06;;;1.51;86.58
19208;BME280;9737;59.466;18.036;2024-02-28T02:29:31;100680.91;;;1.52;86.40
19208;BME280;9737;59.466;18.036;2024-02-28T02:31:59;100675.72;;;1.50;86.43
19208;BME280;9737;59.466;18.036;2024-02-28T02:34:36;100664.44;;;1.48;86.45
19208;BME280;9737;59.466;18.036;2024-02-28T02:37:08;100664.53;;;1.45;86.62
19208;BME280;9737;59.466;18.036;2024-02-28T02:39:37;100659.25;;;1.47;86.46
19208;BME280;9737;59.466;18.036;2024-02-28T02:42:05;100652.63;;;1.35;86.49
19208;BME280;9737;59.466;18.036;2024-02-28T02:44:34;100676.63;;;1.49;86.32
19208;BME280;9737;59.466;18.036;2024-02-28T02:47:02;100652.25;;;1.47;86.51
19208;BME280;9737;59.466;18.036;2024-02-28T02:49:29;100657.47;;;1.47;86.47
19208;BME280;9737;59.466;18.036;2024-02-28T02:51:58;100682.63;;;1.53;86.39
19208;BME280;9737;59.466;18.036;2024-02-28T02:54:26;100664.53;;;1.45;86.13
19208;BME280;9737;59.466;18.036;2024-02-28T02:56:55;100655.78;;;1.46;86.28
19208;BME280;9737;59.466;18.036;2024-02-28T02:59:23;100665.34;;;1.47;86.14
19208;BME280;9737;59.466;18.036;2024-02-28T03:01:52;100662.78;;;1.46;86.22
19208;BME280;9737;59.466;18.036;2024-02-28T03:04:20;100655.78;;;1.46;86.15
19208;BME280;9737;59.466;18.036;2024-02-28T03:06:48;100673.97;;;1.51;86.47
19208;BME280;9737;59.466;18.036;2024-02-28T03:09:16;100685.25;;;1.53;86.50
19208;BME280;9737;59.466;18.036;2024-02-28T03:11:44;100678.34;;;1.50;86.41
19208;BME280;9737;59.466;18.036;2024-02-28T03:14:14;100677.50;;;1.50;86.39
19208;BME280;9737;59.466;18.036;2024-02-28T03:16:42;100636.69;;;1.41;86.41
19208;BME280;9737;59.466;18.036;2024-02-28T03:19:11;100650.59;;;1.43;86.39
19208;BME280;9737;59.466;18.036;2024-02-28T03:21:39;100641.97;;;1.40;86.33
19208;BME280;9737;59.466;18.036;2024-02-28T03:24:07;100643.59;;;1.44;86.51
19208;BME280;9737;59.466;18.036;2024-02-28T03:26:36;100650.59;;;1.43;86.38
19208;BME280;9737;59.466;18.036;2024-02-28T03:29:04;100663.63;;;1.46;86.32
19208;BME280;9737;59.466;18.036;2024-02-28T03:31:33;100637.50;;;1.43;86.16
19208;BME280;9737;59.466;18.036;2024-02-28T03:34:01;100634.16;;;1.38;86.17
19208;BME280;9737;59.466;18.036;2024-02-28T03:36:29;100661.00;;;1.46;86.10
19208;BME280;9737;59.466;18.036;2024-02-28T03:38:57;100651.50;;;1.42;86.43
19208;BME280;9737;59.466;18.036;2024-02-28T03:41:25;100631.66;;;1.35;86.54
19208;BME280;9737;59.466;18.036;2024-02-28T03:43:53;100645.34;;;1.43;86.21
19208;BME280;9737;59.466;18.036;2024-02-28T03:46:21;100648.88;;;1.42;86.24
19208;BME280;9737;59.466;18.036;2024-02-28T03:48:50;100640.22;;;1.40;86.31
19208;BME280;9737;59.466;18.036;2024-02-28T03:51:18;100617.63;;;1.36;86.25
19208;BME280;9737;59.466;18.036;2024-02-28T03:53:46;100605.53;;;1.32;86.08
19208;BME280;9737;59.466;18.036;2024-02-28T03:56:21;100589.06;;;1.29;86.10
19208;BME280;9737;59.466;18.036;2024-02-28T03:58:52;100570.88;;;1.24;86.15
19208;BME280;9737;59.466;18.036;2024-02-28T04:01:20;100599.44;;;1.32;86.39
19208;BME280;9737;59.466;18.036;2024-02-28T04:03:50;100589.94;;;1.29;85.95
19208;BME280;9737;59.466;18.036;2024-02-28T04:06:18;100575.22;;;1.25;86.24
19208;BME280;9737;59.466;18.036;2024-02-28T04:08:46;100579.53;;;1.26;86.20
19208;BME280;9737;59.466;18.036;2024-02-28T04:11:14;100557.88;;;1.21;86.09
19208;BME280;9737;59.466;18.036;2024-02-28T04:13:42;100553.66;;;1.17;86.02
19208;BME280;9737;59.466;18.036;2024-02-28T04:16:10;100549.28;;;1.17;86.63
19208;BME280;9737;59.466;18.036;2024-02-28T04:18:38;100549.16;;;1.20;86.47
19208;BME280;9737;59.466;18.036;2024-02-28T04:21:07;100547.56;;;1.16;86.25
19208;BME280;9737;59.466;18.036;2024-02-28T04:23:35;100529.34;;;1.12;86.17
19208;BME280;9737;59.466;18.036;2024-02-28T04:26:04;100524.09;;;1.12;86.14
19208;BME280;9737;59.466;18.036;2024-02-28T04:28:32;100567.41;;;1.23;86.00
19208;BME280;9737;59.466;18.036;2024-02-28T04:31:00;100543.97;;;1.19;86.17
19208;BME280;9737;59.466;18.036;2024-02-28T04:33:28;100542.34;;;1.15;86.15
19208;BME280;9737;59.466;18.036;2024-02-28T04:35:56;100548.41;;;1.17;86.26
19208;BME280;9737;59.466;18.036;2024-02-28T04:38:25;100560.50;;;1.21;86.02
19208;BME280;9737;59.466;18.036;2024-02-28T04:40:53;100555.31;;;1.19;86.35
19208;BME280;9737;59.466;18.036;2024-02-28T04:43:21;100563.94;;;1.23;86.18
19208;BME280;9737;59.466;18.036;2024-02-28T04:45:49;100559.66;;;1.20;86.12
19208;BME280;9737;59.466;18.036;2024-02-28T04:48:17;100556.97;;;1.22;86.17
19208;BME280;9737;59.466;18.036;2024-02-28T04:50:45;100562.22;;;1.22;86.11
19208;BME280;9737;59.466;18.036;2024-02-28T04:53:13;100537.09;;;1.15;86.24
19208;BME280;9737;59.466;18.036;2024-02-28T04:55:43;100539.81;;;1.12;85.96
19208;BME280;9737;59.466;18.036;2024-02-28T04:58:11;100537.94;;;1.17;85.83
19208;BME280;9737;59.466;18.036;2024-02-28T05:00:39;100523.25;;;1.11;86.09
19208;BME280;9737;59.466;18.036;2024-02-28T05:03:07;100533.59;;;1.16;86.13
19208;BME280;9737;59.466;18.036;2024-02-28T05:05:35;100531.00;;;1.14;86.46
19208;BME280;9737;59.466;18.036;2024-02-28T05:08:04;100553.56;;;1.20;86.40
19208;BME280;9737;59.466;18.036;2024-02-28T05:10:32;100556.19;;;1.20;86.03
19208;BME280;9737;59.466;18.036;2024-02-28T05:13:02;100546.59;;;1.19;86.48
19208;BME280;9737;59.466;18.036;2024-02-28T05:15:30;100509.41;;;1.08;86.30
19208;BME280;9737;59.466;18.036;2024-02-28T05:17:58;100538.00;;;1.14;86.40
19208;BME280;9737;59.466;18.036;2024-02-28T05:20:26;100527.53;;;1.14;85.96
19208;BME280;9737;59.466;18.036;2024-02-28T05:22:54;100531.91;;;1.13;86.40
19208;BME280;9737;59.466;18.036;2024-02-28T05:25:22;100531.00;;;1.16;86.08
19208;BME280;9737;59.466;18.036;2024-02-28T05:27:50;100518.75;;;1.15;85.82
19208;BME280;9737;59.466;18.036;2024-02-28T05:30:20;100544.03;;;1.17;86.10
19208;BME280;9737;59.466;18.036;2024-02-28T05:32:48;100503.47;;;1.03;86.03
19208;BME280;9737;59.466;18.036;2024-02-28T05:35:17;100527.53;;;1.14;85.95
19208;BME280;9737;59.466;18.036;2024-02-28T05:37:45;100538.84;;;1.16;86.27
19208;BME280;9737;59.466;18.036;2024-02-28T05:40:14;100539.66;;;1.18;86.25
19208;BME280;9737;59.466;18.036;2024-02-28T05:42:42;100547.41;;;1.21;86.42
19208;BME280;9737;59.466;18.036;2024-02-28T05:45:10;100539.66;;;1.18;85.74
19208;BME280;9737;59.466;18.036;2024-02-28T05:47:40;100501.66;;;1.05;85.94
19208;BME280;9737;59.466;18.036;2024-02-28T05:50:09;100533.59;;;1.16;86.10
19208;BME280;9737;59.466;18.036;2024-02-28T05:52:37;100540.56;;;1.17;86.38
19208;BME280;9737;59.466;18.036;2024-02-28T05:55:06;100537.94;;;1.17;86.19
19208;BME280;9737;59.466;18.036;2024-02-28T05:57:34;100526.69;;;1.13;86.39
19208;BME280;9737;59.466;18.036;2024-02-28T06:00:02;100522.28;;;1.14;86.02
19208;BME280;9737;59.466;18.036;2024-02-28T06:02:36;100511.97;;;1.09;86.08
19208;BME280;9737;59.466;18.036;2024-02-28T06:05:06;100538.88;;;1.14;85.73
19208;BME280;9737;59.466;18.036;2024-02-28T06:07:34;100544.09;;;1.16;85.79
19208;BME280;9737;59.466;18.036;2024-02-28T06:10:03;100521.44;;;1.13;85.93
19208;BME280;9737;59.466;18.036;2024-02-28T06:12:31;100526.69;;;1.13;86.26
19208;BME280;9737;59.466;18.036;2024-02-28T06:14:59;100538.78;;;1.17;85.75
19208;BME280;9737;59.466;18.036;2024-02-28T06:17:27;100563.94;;;1.23;86.21
19208;BME280;9737;59.466;18.036;2024-02-28T06:19:55;100555.25;;;1.21;85.87
19208;BME280;9737;59.466;18.036;2024-02-28T06:22:24;100550.03;;;1.21;86.35
19208;BME280;9737;59.466;18.036;2024-02-28T06:24:52;100561.31;;;1.23;86.30
19208;BME280;9737;59.466;18.036;2024-02-28T06:27:20;100548.38;;;1.18;86.28
19208;BME280;9737;59.466;18.036;2024-02-28T06:29:48;100576.88;;;1.28;85.92
19208;BME280;9737;59.466;18.036;2024-02-28T06:32:16;100588.97;;;1.32;86.01
19208;BME280;9737;59.466;18.036;2024-02-28T06:34:44;100580.34;;;1.28;86.02
19208;BME280;9737;59.466;18.036;2024-02-28T06:37:12;100588.97;;;1.32;86.11
19208;BME280;9737;59.466;18.036;2024-02-28T06:39:41;100587.31;;;1.29;85.65
19208;BME280;9737;59.466;18.036;2024-02-28T06:42:09;100594.34;;;1.27;86.05
19208;BME280;9737;59.466;18.036;2024-02-28T06:44:37;100586.50;;;1.27;85.96
19208;BME280;9737;59.466;18.036;2024-02-28T06:47:05;100634.06;;;1.41;85.87
19208;BME280;9737;59.466;18.036;2024-02-28T06:49:33;100640.09;;;1.45;86.00
19208;BME280;9737;59.466;18.036;2024-02-28T06:52:01;100646.22;;;1.44;86.09
19208;BME280;9737;59.466;18.036;2024-02-28T06:54:29;100669.56;;;1.51;86.14
19208;BME280;9737;59.466;18.036;2024-02-28T06:57:00;100669.56;;;1.51;86.10
19208;BME280;9737;59.466;18.036;2024-02-28T06:59:29;100678.25;;;1.53;86.07
19208;BME280;9737;59.466;18.036;2024-02-28T07:01:57;100694.72;;;1.57;86.09
19208;BME280;9737;59.466;18.036;2024-02-28T07:04:26;100668.72;;;1.51;85.96
19208;BME280;9737;59.466;18.036;2024-02-28T07:06:54;100688.69;;;1.55;85.83
19208;BME280;9737;59.466;18.036;2024-02-28T07:09:22;100707.69;;;1.62;86.18
19208;BME280;9737;59.466;18.036;2024-02-28T07:11:52;100725.03;;;1.66;86.06
19208;BME280;9737;59.466;18.036;2024-02-28T07:14:21;100713.88;;;1.59;86.11
19208;BME280;9737;59.466;18.036;2024-02-28T07:16:49;100741.50;;;1.69;85.75
19208;BME280;9737;59.466;18.036;2024-02-28T07:19:18;100746.72;;;1.71;86.12
19208;BME280;9737;59.466;18.036;2024-02-28T07:21:46;100749.34;;;1.71;85.88
19208;BME280;9737;59.466;18.036;2024-02-28T07:24:14;100772.81;;;1.75;86.02
19208;BME280;9737;59.466;18.036;2024-02-28T07:26:42;100780.53;;;1.80;86.07
19208;BME280;9737;59.466;18.036;2024-02-28T07:29:10;100789.25;;;1.80;85.85
19208;BME280;9737;59.466;18.036;2024-02-28T07:31:39;100834.31;;;1.93;85.80
19208;BME280;9737;59.466;18.036;2024-02-28T07:34:07;100848.22;;;1.95;85.96
19208;BME280;9737;59.466;18.036;2024-02-28T07:36:35;100861.19;;;2.00;86.07
19208;BME280;9737;59.466;18.036;2024-02-28T07:39:03;100872.56;;;2.00;86.06
19208;BME280;9737;59.466;18.036;2024-02-28T07:41:31;100896.84;;;2.07;85.98
19208;BME280;9737;59.466;18.036;2024-02-28T07:44:00;100933.31;;;2.16;85.98
19208;BME280;9737;59.466;18.036;2024-02-28T07:46:27;100935.94;;;2.16;86.01
19208;BME280;9737;59.466;18.036;2024-02-28T07:48:57;100940.31;;;2.15;85.57
19208;BME280;9737;59.466;18.036;2024-02-28T07:51:25;100973.25;;;2.26;85.92
19208;BME280;9737;59.466;18.036;2024-02-28T07:53:53;100986.25;;;2.29;85.87
19208;BME280;9737;59.466;18.036;2024-02-28T07:56:21;101000.19;;;2.32;85.62
19208;BME280;9737;59.466;18.036;2024-02-28T07:58:49;101021.03;;;2.37;85.97
19208;BME280;9737;59.466;18.036;2024-02-28T08:01:17;101070.53;;;2.49;85.91
19208;BME280;9737;59.466;18.036;2024-02-28T08:03:45;101053.16;;;2.45;85.81
19208;BME280;9737;59.466;18.036;2024-02-28T08:06:15;101060.13;;;2.46;85.99
19208;BME280;9737;59.466;18.036;2024-02-28T08:08:44;101060.13;;;2.46;85.78
19208;BME280;9737;59.466;18.036;2024-02-28T08:11:13;101037.50;;;2.42;85.99
19208;BME280;9737;59.466;18.036;2024-02-28T08:13:41;101042.66;;;2.45;85.78
19208;BME280;9737;59.466;18.036;2024-02-28T08:16:10;101064.47;;;2.47;85.71
19208;BME280;9737;59.466;18.036;2024-02-28T08:18:39;101053.16;;;2.45;86.01
19208;BME280;9737;59.466;18.036;2024-02-28T08:21:08;101070.50;;;2.51;86.02
19208;BME280;9737;59.466;18.036;2024-02-28T08:23:37;101080.94;;;2.52;85.84
19208;BME280;9737;59.466;18.036;2024-02-28T08:26:06;101084.38;;;2.54;85.90
19208;BME280;9737;59.466;18.036;2024-02-28T08:28:33;101097.44;;;2.57;85.93
19208;BME280;9737;59.466;18.036;2024-02-28T08:31:01;101104.44;;;2.57;85.84
19208;BME280;9737;59.466;18.036;2024-02-28T08:33:30;101097.47;;;2.56;85.91
19208;BME280;9737;59.466;18.036;2024-02-28T08:35:58;101131.31;;;2.66;85.86
19208;BME280;9737;59.466;18.036;2024-02-28T08:38:26;101140.88;;;2.69;86.06
19208;BME280;9737;59.466;18.036;2024-02-28T08:40:55;101138.28;;;2.67;85.69
19208;BME280;9737;59.466;18.036;2024-02-28T08:43:23;101128.75;;;2.65;85.93
19208;BME280;9737;59.466;18.036;2024-02-28T08:45:51;101117.47;;;2.61;85.74
19208;BME280;9737;59.466;18.036;2024-02-28T08:48:21;101128.75;;;2.65;85.88
19208;BME280;9737;59.466;18.036;2024-02-28T08:50:49;101156.59;;;2.70;86.11
19208;BME280;9737;59.466;18.036;2024-02-28T08:53:17;101180.03;;;2.76;85.89
19208;BME280;9737;59.466;18.036;2024-02-28T08:55:45;101172.16;;;2.76;85.88
19208;BME280;9737;59.466;18.036;2024-02-28T08:58:14;101162.66;;;2.72;85.79
19208;BME280;9737;59.466;18.036;2024-02-28T09:00:42;101186.91;;;2.80;85.70
19208;BME280;9737;59.466;18.036;2024-02-28T09:03:10;101173.94;;;2.76;85.80
19208;BME280;9737;59.466;18.036;2024-02-28T09:05:38;101180.03;;;2.76;85.74
19208;BME280;9737;59.466;18.036;2024-02-28T09:08:06;101159.13;;;2.73;85.91
19208;BME280;9737;59.466;18.036;2024-02-28T09:10:38;101172.19;;;2.75;85.68
19208;BME280;9737;59.466;18.036;2024-02-28T09:13:06;101200.00;;;2.82;86.05
19208;BME280;9737;59.466;18.036;2024-02-28T09:15:36;101210.44;;;2.85;85.72
19208;BME280;9737;59.466;18.036;2024-02-28T09:18:04;101219.13;;;2.87;85.67
19208;BME280;9737;59.466;18.036;2024-02-28T09:20:32;101196.53;;;2.82;85.62
19208;BME280;9737;59.466;18.036;2024-02-28T09:23:00;101204.34;;;2.83;85.91
19208;BME280;9737;59.466;18.036;2024-02-28T09:25:28;101189.53;;;2.80;85.93
19208;BME280;9737;59.466;18.036;2024-02-28T09:27:57;101175.66;;;2.77;85.64
19208;BME280;9737;59.466;18.036;2024-02-28T09:30:27;101200.88;;;2.83;85.78
19208;BME280;9737;59.466;18.036;2024-02-28T09:33:09;101233.88;;;2.93;85.62
19208;BME280;9737;59.466;18.036;2024-02-28T09:35:39;101252.19;;;2.96;85.62
19208;BME280;9737;59.466;18.036;2024-02-28T09:38:07;101254.81;;;2.96;85.60
19208;BME280;9737;59.466;18.036;2024-02-28T09:40:35;101212.16;;;2.86;85.70
19208;BME280;9737;59.466;18.036;2024-02-28T09:43:03;101218.25;;;2.87;85.65
19208;BME280;9737;59.466;18.036;2024-02-28T09:45:31;101200.06;;;2.80;85.60
19208;BME280;9737;59.466;18.036;2024-02-28T09:47:59;101218.25;;;2.87;85.75
19208;BME280;9737;59.466;18.036;2024-02-28T09:50:30;101228.72;;;2.90;85.66
19208;BME280;9737;59.466;18.036;2024-02-28T09:52:58;101188.81;;;2.75;85.67
19208;BME280;9737;59.466;18.036;2024-02-28T09:55:36;101210.44;;;2.85;85.69
19208;BME280;9737;59.466;18.036;2024-02-28T09:58:04;101239.13;;;2.93;85.33
19208;BME280;9737;59.466;18.036;2024-02-28T10:00:33;101220.97;;;2.84;85.62
19208;BME280;9737;59.466;18.036;2024-02-28T10:03:03;101224.41;;;2.86;85.74
19208;BME280;9737;59.466;18.036;2024-02-28T10:05:34;101214.09;;;2.79;85.67
19208;BME280;9737;59.466;18.036;2024-02-28T10:08:04;101214.06;;;2.81;85.67
19208;BME280;9737;59.466;18.036;2024-02-28T10:10:32;101256.53;;;2.97;85.56
19208;BME280;9737;59.466;18.036;2024-02-28T10:13:00;101252.19;;;2.96;85.58
19208;BME280;9737;59.466;18.036;2024-02-28T10:15:28;101236.50;;;2.93;85.62
19208;BME280;9737;59.466;18.036;2024-02-28T10:17:57;101255.72;;;2.95;85.61
19208;BME280;9737;59.466;18.036;2024-02-28T10:20:25;101274.78;;;3.01;85.56
19208;BME280;9737;59.466;18.036;2024-02-28T10:22:54;101247.78;;;2.96;85.46
19208;BME280;9737;59.466;18.036;2024-02-28T10:25:22;101244.38;;;2.93;85.45
19208;BME280;9737;59.466;18.036;2024-02-28T10:27:50;101234.81;;;2.90;85.50
19208;BME280;9737;59.466;18.036;2024-02-28T10:30:18;101239.13;;;2.93;85.42
19208;BME280;9737;59.466;18.036;2024-02-28T10:32:49;101262.66;;;2.97;85.61
19208;BME280;9737;59.466;18.036;2024-02-28T10:35:18;101249.66;;;2.93;85.78
19208;BME280;9737;59.466;18.036;2024-02-28T10:37:47;101259.09;;;2.98;85.44
19208;BME280;9737;59.466;18.036;2024-02-28T10:40:20;101258.25;;;2.98;85.38
19208;BME280;9737;59.466;18.036;2024-02-28T10:42:48;101256.53;;;2.97;85.53
19208;BME280;9737;59.466;18.036;2024-02-28T10:45:17;101267.91;;;2.97;85.45
19208;BME280;9737;59.466;18.036;2024-02-28T10:48:07;101279.09;;;3.04;85.43
19208;BME280;9737;59.466;18.036;2024-02-28T10:50:36;101295.69;;;3.06;85.49
19208;BME280;9737;59.466;18.036;2024-02-28T10:53:04;101253.03;;;2.96;85.57
19208;BME280;9737;59.466;18.036;2024-02-28T10:55:40;101233.06;;;2.91;85.31
19208;BME280;9737;59.466;18.036;2024-02-28T10:58:10;101239.13;;;2.93;85.31
19208;BME280;9737;59.466;18.036;2024-02-28T11:00:40;101235.69;;;2.91;85.47
19208;BME280;9737;59.466;18.036;2024-02-28T11:03:09;101255.66;;;2.96;85.33
19208;BME280;9737;59.466;18.036;2024-02-28T11:05:39;101319.06;;;3.15;85.54
19208;BME280;9737;59.466;18.036;2024-02-28T11:08:08;101455.78;;;3.48;85.14
19208;BME280;9737;59.466;18.036;2024-02-28T11:10:41;101744.25;;;4.17;85.06
19208;BME280;9737;59.466;18.036;2024-02-28T11:13:21;101942.28;;;4.68;85.04
19208;BME280;9737;59.466;18.036;2024-02-28T11:15:49;102122.28;;;5.10;85.27
19208;BME280;9737;59.466;18.036;2024-02-28T11:18:17;102470.53;;;5.95;85.42
19208;BME280;9737;59.466;18.036;2024-02-28T11:20:45;102723.81;;;6.57;85.54
19208;BME280;9737;59.466;18.036;2024-02-28T11:23:17;102706.34;;;6.49;85.04
19208;BME280;9737;59.466;18.036;2024-02-28T11:25:46;102472.31;;;5.95;84.98
19208;BME280;9737;59.466;18.036;2024-02-28T11:28:15;102421.53;;;5.82;85.73
19208;BME280;9737;59.466;18.036;2024-02-28T11:30:43;102397.88;;;5.76;85.02
19208;BME280;9737;59.466;18.036;2024-02-28T11:33:11;102411.91;;;5.79;85.70
19208;BME280;9737;59.466;18.036;2024-02-28T11:35:39;102386.50;;;5.72;84.91
19208;BME280;9737;59.466;18.036;2024-02-28T11:38:08;102359.41;;;5.64;85.63
19208;BME280;9737;59.466;18.036;2024-02-28T11:40:36;102354.13;;;5.64;84.74
19208;BME280;9737;59.466;18.036;2024-02-28T11:43:06;102281.50;;;5.46;85.29
19208;BME280;9737;59.466;18.036;2024-02-28T11:45:39;102044.59;;;4.88;85.59
19208;BME280;9737;59.466;18.036;2024-02-28T11:48:08;101917.00;;;4.59;84.93
19208;BME280;9737;59.466;18.036;2024-02-28T11:50:37;101868.19;;;4.46;85.41
19208;BME280;9737;59.466;18.036;2024-02-28T11:53:05;101855.94;;;4.44;85.45
19208;BME280;9737;59.466;18.036;2024-02-28T11:55:33;101829.72;;;4.39;84.86
19208;BME280;9737;59.466;18.036;2024-02-28T11:58:02;101795.75;;;4.28;84.98
19208;BME280;9737;59.466;18.036;2024-02-28T12:00:46;101767.84;;;4.21;85.04
19208;BME280;9737;59.466;18.036;2024-02-28T12:03:14;101691.91;;;4.04;85.04
19208;BME280;9737;59.466;18.036;2024-02-28T12:05:42;101660.47;;;3.98;85.25
19208;BME280;9737;59.466;18.036;2024-02-28T12:08:10;101611.75;;;3.84;85.10
19208;BME280;9737;59.466;18.036;2024-02-28T12:10:38;101596.00;;;3.82;85.32
19208;BME280;9737;59.466;18.036;2024-02-28T12:13:06;101609.13;;;3.84;84.98
19208;BME280;9737;59.466;18.036;2024-02-28T12:15:38;101589.94;;;3.80;85.14
19208;BME280;9737;59.466;18.036;2024-02-28T12:18:08;101625.69;;;3.87;85.09
19208;BME280;9737;59.466;18.036;2024-02-28T12:20:37;101602.22;;;3.80;85.06
19208;BME280;9737;59.466;18.036;2024-02-28T12:23:05;101573.38;;;3.75;85.15
19208;BME280;9737;59.466;18.036;2024-02-28T12:25:35;101587.38;;;3.77;84.68
19208;BME280;9737;59.466;18.036;2024-02-28T12:28:05;101601.28;;;3.82;85.05
19208;BME280;9737;59.466;18.036;2024-02-28T12:30:40;101575.13;;;3.76;84.88
19208;BME280;9737;59.466;18.036;2024-02-28T12:33:10;101561.16;;;3.72;84.94
19208;BME280;9737;59.466;18.036;2024-02-28T12:35:39;101575.13;;;3.76;85.00
19208;BME280;9737;59.466;18.036;2024-02-28T12:38:10;101611.81;;;3.82;84.93
19208;BME280;9737;59.466;18.036;2024-02-28T12:40:38;101633.50;;;3.90;84.82
19208;BME280;9737;59.466;18.036;2024-02-28T12:43:06;101648.31;;;3.94;85.01
19208;BME280;9737;59.466;18.036;2024-02-28T12:45:34;101671.84;;;4.00;84.42
19208;BME280;9737;59.466;18.036;2024-02-28T12:48:04;101739.00;;;4.17;85.03
19208;BME280;9737;59.466;18.036;2024-02-28T12:50:33;101895.09;;;4.57;85.15
19208;BME280;9737;59.466;18.036;2024-02-28T12:53:02;102083.84;;;5.02;84.60
19208;BME280;9737;59.466;18.036;2024-02-28T12:55:30;102232.47;;;5.36;84.72
19208;BME280;9737;59.466;18.036;2024-02-28T12:57:57;102230.69;;;5.38;84.36
19208;BME280;9737;59.466;18.036;2024-02-28T13:00:26;102155.50;;;5.19;84.68
19208;BME280;9737;59.466;18.036;2024-02-28T13:02:55;102020.03;;;4.86;85.04
19208;BME280;9737;59.466;18.036;2024-02-28T13:05:24;101973.84;;;4.71;84.90
19208;BME280;9737;59.466;18.036;2024-02-28T13:07:57;101965.94;;;4.71;84.50